createdAt,value
2019-01-25T00:00:53.019Z,57.61
2019-01-25T00:01:53.017Z,57.51
2019-01-25T00:02:52.990Z,58.03
2019-01-25T00:03:53.020Z,57.09
2019-01-25T00:04:53.075Z,57.30
2019-01-25T00:05:53.021Z,57.30
2019-01-25T00:06:52.961Z,55.19
2019-01-25T00:07:52.980Z,56.99
2019-01-25T00:08:52.930Z,57.61
2019-01-25T00:09:58.659Z,55.30
2019-01-25T00:10:53.926Z,57.48
2019-01-25T00:11:52.902Z,55.30
2019-01-25T00:12:52.926Z,53.97
2019-01-25T00:13:52.923Z,53.26
2019-01-25T00:14:52.883Z,55.24
2019-01-25T00:15:52.876Z,56.49
2019-01-25T00:16:52.859Z,57.64
2019-01-25T00:17:52.975Z,56.49
2019-01-25T00:18:52.832Z,55.32
2019-01-25T00:19:52.885Z,56.15
2019-01-25T00:20:52.845Z,56.47
2019-01-25T00:21:52.792Z,55.32
2019-01-25T00:22:52.779Z,56.37
2019-01-25T00:23:52.906Z,55.53
2019-01-25T00:24:52.771Z,55.32
2019-01-25T00:25:52.779Z,55.11
2019-01-25T00:26:52.771Z,53.86
2019-01-25T00:27:52.757Z,55.43
2019-01-25T00:28:52.839Z,55.32
2019-01-25T00:29:52.721Z,55.53
2019-01-25T00:30:52.724Z,55.11
2019-01-25T00:31:52.682Z,55.22
2019-01-25T00:32:52.681Z,56.05
2019-01-25T00:33:52.669Z,56.57
2019-01-25T00:34:52.690Z,54.59
2019-01-25T00:35:52.655Z,52.40
2019-01-25T00:36:52.653Z,56.26
2019-01-25T00:37:52.650Z,57.09
2019-01-25T00:38:52.615Z,56.26
2019-01-25T00:39:52.605Z,54.38
2019-01-25T00:40:52.615Z,52.92
2019-01-25T00:41:52.584Z,54.91
2019-01-25T00:42:52.617Z,55.43
2019-01-25T00:43:52.657Z,54.07
2019-01-25T00:44:52.565Z,52.84
2019-01-25T00:45:52.576Z,54.41
2019-01-25T00:46:52.528Z,56.81
2019-01-25T00:47:52.518Z,56.29
2019-01-25T00:48:52.535Z,56.39
2019-01-25T00:49:52.491Z,55.43
2019-01-25T00:50:52.524Z,55.43
2019-01-25T00:51:52.477Z,53.86
2019-01-25T00:52:52.471Z,53.76
2019-01-25T00:53:52.454Z,53.76
2019-01-25T00:54:52.451Z,54.28
2019-01-25T00:55:52.426Z,53.58
2019-01-25T00:56:52.476Z,54.38
2019-01-25T00:57:52.415Z,54.69
2019-01-25T00:58:52.398Z,54.49
2019-01-25T00:59:52.400Z,53.66
2019-01-25T01:00:52.404Z,53.26
2019-01-25T01:01:52.361Z,53.23
2019-01-25T01:02:52.355Z,52.95
2019-01-25T01:03:52.361Z,54.93
2019-01-25T01:04:52.355Z,54.20
2019-01-25T01:05:52.360Z,53.78
2019-01-25T01:06:52.325Z,54.83
2019-01-25T01:07:52.302Z,55.45
2019-01-25T01:08:52.292Z,55.32
2019-01-25T01:09:52.312Z,55.14
2019-01-25T01:10:52.273Z,54.38
2019-01-25T01:11:52.288Z,54.59
2019-01-25T01:12:52.261Z,53.66
2019-01-25T01:13:52.248Z,54.69
2019-01-25T01:14:52.230Z,55.22
2019-01-25T01:15:52.225Z,52.92
2019-01-25T01:16:52.237Z,54.28
2019-01-25T01:17:52.200Z,53.86
2019-01-25T01:18:52.195Z,54.49
2019-01-25T01:19:52.171Z,53.86
2019-01-25T01:20:52.166Z,53.03
2019-01-25T01:21:52.153Z,54.69
2019-01-25T01:22:56.964Z,54.59
2019-01-25T01:23:52.180Z,54.59
2019-01-25T01:24:52.125Z,53.66
2019-01-25T01:25:52.117Z,52.92
2019-01-25T01:26:52.117Z,54.46
2019-01-25T01:27:52.093Z,53.74
2019-01-25T01:28:52.081Z,53.66
2019-01-25T01:29:52.090Z,53.76
2019-01-25T01:30:52.061Z,51.99
2019-01-25T01:31:52.076Z,51.46
2019-01-25T01:32:52.042Z,53.23
2019-01-25T01:33:52.028Z,54.59
2019-01-25T01:34:52.041Z,54.38
2019-01-25T01:35:52.012Z,53.97
2019-01-25T01:36:51.996Z,53.23
2019-01-25T01:37:52.002Z,52.61
2019-01-25T01:38:52.022Z,53.86
2019-01-25T01:39:51.965Z,53.03
2019-01-25T01:40:51.952Z,52.72
2019-01-25T01:41:51.939Z,54.49
2019-01-25T01:42:51.926Z,54.49
2019-01-25T01:43:51.924Z,52.72
2019-01-25T01:44:51.947Z,51.67
2019-01-25T01:45:51.918Z,53.13
2019-01-25T01:46:51.901Z,52.92
2019-01-25T01:47:51.875Z,52.30
2019-01-25T01:48:51.865Z,52.82
2019-01-25T01:49:51.860Z,53.23
2019-01-25T01:50:51.874Z,53.13
2019-01-25T01:51:51.850Z,53.45
2019-01-25T01:52:51.823Z,52.72
2019-01-25T01:53:51.810Z,54.07
2019-01-25T01:54:51.831Z,53.45
2019-01-25T01:55:51.837Z,53.76
2019-01-25T01:56:51.785Z,53.13
2019-01-25T01:57:51.777Z,52.72
2019-01-25T01:58:51.773Z,52.90
2019-01-25T01:59:51.757Z,53.55
2019-01-25T02:00:51.739Z,52.61
2019-01-25T02:01:51.756Z,51.67
2019-01-25T02:02:51.743Z,51.05
2019-01-25T02:03:51.710Z,52.40
2019-01-25T02:04:51.738Z,52.72
2019-01-25T02:05:51.731Z,53.86
2019-01-25T02:06:51.693Z,53.76
2019-01-25T02:07:51.667Z,52.92
2019-01-25T02:08:51.659Z,52.40
2019-01-25T02:09:51.689Z,52.61
2019-01-25T02:10:51.647Z,53.55
2019-01-25T02:11:51.646Z,53.76
2019-01-25T02:12:51.609Z,53.13
2019-01-25T02:13:51.613Z,51.26
2019-01-25T02:14:51.599Z,52.61
2019-01-25T02:15:51.589Z,52.82
2019-01-25T02:16:51.605Z,52.92
2019-01-25T02:17:51.563Z,52.61
2019-01-25T02:18:51.554Z,52.92
2019-01-25T02:19:51.538Z,52.82
2019-01-25T02:20:51.529Z,53.03
2019-01-25T02:21:51.543Z,52.72
2019-01-25T02:22:51.515Z,53.45
2019-01-25T02:23:51.491Z,53.23
2019-01-25T02:24:51.505Z,52.80
2019-01-25T02:25:51.469Z,53.32
2019-01-25T02:26:51.500Z,53.11
2019-01-25T02:27:51.460Z,52.90
2019-01-25T02:28:51.443Z,52.28
2019-01-25T02:29:51.436Z,52.80
2019-01-25T02:30:51.423Z,51.44
2019-01-25T02:31:51.408Z,51.23
2019-01-25T02:32:51.425Z,52.20
2019-01-25T02:33:51.392Z,52.61
2019-01-25T02:34:51.376Z,52.82
2019-01-25T02:35:51.374Z,53.23
2019-01-25T02:36:51.357Z,51.26
2019-01-25T02:37:51.343Z,52.30
2019-01-25T02:38:51.365Z,52.82
2019-01-25T02:39:51.329Z,52.82
2019-01-25T02:40:51.319Z,52.82
2019-01-25T02:41:51.309Z,52.72
2019-01-25T02:42:51.292Z,53.45
2019-01-25T02:43:51.282Z,52.92
2019-01-25T02:44:51.288Z,53.66
2019-01-25T02:45:51.252Z,52.30
2019-01-25T02:46:51.247Z,52.20
2019-01-25T02:47:51.248Z,53.97
2019-01-25T02:48:51.232Z,52.72
2019-01-25T02:49:51.237Z,53.23
2019-01-25T02:50:51.206Z,53.76
2019-01-25T02:51:51.191Z,54.07
2019-01-25T02:52:51.176Z,53.66
2019-01-25T02:53:51.172Z,52.92
2019-01-25T02:54:51.194Z,53.76
2019-01-25T02:55:51.158Z,53.76
2019-01-25T02:56:51.137Z,53.23
2019-01-25T02:57:51.125Z,53.97
2019-01-25T02:58:51.112Z,52.92
2019-01-25T02:59:51.112Z,53.74
2019-01-25T03:00:51.118Z,53.32
2019-01-25T03:01:51.090Z,50.74
2019-01-25T03:02:51.082Z,48.86
2019-01-25T03:03:51.059Z,50.87
2019-01-25T03:04:51.048Z,53.18
2019-01-25T03:05:51.075Z,55.04
2019-01-25T03:06:51.035Z,55.04
2019-01-25T03:07:51.044Z,55.04
2019-01-25T03:08:51.011Z,54.51
2019-01-25T03:09:50.995Z,55.24
2019-01-25T03:10:51.009Z,55.76
2019-01-25T03:11:51.015Z,55.11
2019-01-25T03:12:50.979Z,55.22
2019-01-25T03:13:50.966Z,53.23
2019-01-25T03:14:50.952Z,53.03
2019-01-25T03:15:50.943Z,53.66
2019-01-25T03:16:50.944Z,53.86
2019-01-25T03:17:50.913Z,55.53
2019-01-25T03:18:50.922Z,55.01
2019-01-25T03:19:50.900Z,55.01
2019-01-25T03:20:50.889Z,54.69
2019-01-25T03:21:50.896Z,52.82
2019-01-25T03:22:50.872Z,55.01
2019-01-25T03:23:50.846Z,55.11
2019-01-25T03:24:50.839Z,54.80
2019-01-25T03:25:50.832Z,54.49
2019-01-25T03:26:50.856Z,54.38
2019-01-25T03:27:50.809Z,52.40
2019-01-25T03:28:50.805Z,52.82
2019-01-25T03:29:50.785Z,54.38
2019-01-25T03:30:50.774Z,55.11
2019-01-25T03:31:50.782Z,54.28
2019-01-25T03:32:50.844Z,54.28
2019-01-25T03:33:50.761Z,52.61
2019-01-25T03:34:50.740Z,53.86
2019-01-25T03:35:50.721Z,53.86
2019-01-25T03:36:50.754Z,54.57
2019-01-25T03:37:50.815Z,53.23
2019-01-25T03:38:50.695Z,54.28
2019-01-25T03:39:50.692Z,54.28
2019-01-25T03:40:55.206Z,55.01
2019-01-25T03:41:50.680Z,54.25
2019-01-25T03:42:50.695Z,54.99
2019-01-25T03:43:50.645Z,54.88
2019-01-25T03:44:50.646Z,55.09
2019-01-25T03:45:50.628Z,54.99
2019-01-25T03:46:50.611Z,55.40
2019-01-25T03:47:50.623Z,54.77
2019-01-25T03:48:50.586Z,56.44
2019-01-25T03:49:50.577Z,54.57
2019-01-25T03:50:50.569Z,52.87
2019-01-25T03:51:50.564Z,52.38
2019-01-25T03:52:50.561Z,53.11
2019-01-25T03:53:50.535Z,53.42
2019-01-25T03:54:50.561Z,53.74
2019-01-25T03:55:50.513Z,53.94
2019-01-25T03:56:50.504Z,53.66
2019-01-25T03:57:50.492Z,53.86
2019-01-25T03:58:50.490Z,51.13
2019-01-25T03:59:50.487Z,53.13
2019-01-25T04:00:50.498Z,54.91
2019-01-25T04:01:50.461Z,54.28
2019-01-25T04:02:50.441Z,54.17
2019-01-25T04:03:50.427Z,55.43
2019-01-25T04:04:50.428Z,55.22
2019-01-25T04:05:50.409Z,54.25
2019-01-25T04:06:50.417Z,54.99
2019-01-25T04:07:50.386Z,54.36
2019-01-25T04:08:50.379Z,53.86
2019-01-25T04:09:50.371Z,55.01
2019-01-25T04:10:50.355Z,55.63
2019-01-25T04:11:50.362Z,53.74
2019-01-25T04:12:50.331Z,53.66
2019-01-25T04:13:50.324Z,54.69
2019-01-25T04:14:50.334Z,55.32
2019-01-25T04:15:50.296Z,55.32
2019-01-25T04:16:50.306Z,56.37
2019-01-25T04:17:50.320Z,55.40
2019-01-25T04:18:50.263Z,56.34
2019-01-25T04:19:50.256Z,56.65
2019-01-25T04:20:50.250Z,55.30
2019-01-25T04:21:50.239Z,55.19
2019-01-25T04:22:50.252Z,55.30
2019-01-25T04:23:50.209Z,54.77
2019-01-25T04:24:50.202Z,56.65
2019-01-25T04:25:50.188Z,55.40
2019-01-25T04:26:50.181Z,54.57
2019-01-25T04:27:50.196Z,55.40
2019-01-25T04:28:50.165Z,51.57
2019-01-25T04:29:50.145Z,55.01
2019-01-25T04:30:50.145Z,54.07
2019-01-25T04:31:50.130Z,55.04
2019-01-25T04:32:50.188Z,57.54
2019-01-25T04:33:50.118Z,57.12
2019-01-25T04:34:50.106Z,57.64
2019-01-25T04:35:50.086Z,57.61
2019-01-25T04:36:50.072Z,58.14
2019-01-25T04:37:50.067Z,58.97
2019-01-25T04:38:50.076Z,59.28
2019-01-25T04:39:50.053Z,59.07
2019-01-25T04:40:50.037Z,58.94
2019-01-25T04:41:50.023Z,58.53
2019-01-25T04:42:50.013Z,57.71
2019-01-25T04:43:50.019Z,58.53
2019-01-25T04:44:50.010Z,57.59
2019-01-25T04:45:49.985Z,57.51
2019-01-25T04:46:49.992Z,58.14
2019-01-25T04:47:49.956Z,55.11
2019-01-25T04:48:50.006Z,55.43
2019-01-25T04:49:49.954Z,57.30
2019-01-25T04:50:49.928Z,58.65
2019-01-25T04:51:49.955Z,57.61
2019-01-25T04:52:49.932Z,59.07
2019-01-25T04:53:49.937Z,57.82
2019-01-25T04:54:49.890Z,58.65
2019-01-25T04:55:49.869Z,58.97
2019-01-25T04:56:49.863Z,59.07
2019-01-25T04:57:49.954Z,59.25
2019-01-25T04:58:49.866Z,59.49
2019-01-25T04:59:49.856Z,59.17
2019-01-25T05:00:49.831Z,55.22
2019-01-25T05:01:49.844Z,57.09
2019-01-25T05:02:49.800Z,58.55
2019-01-25T05:03:49.792Z,56.68
2019-01-25T05:04:49.810Z,55.43
2019-01-25T05:05:49.799Z,55.63
2019-01-25T05:06:49.834Z,55.45
2019-01-25T05:07:49.773Z,57.43
2019-01-25T05:08:49.751Z,58.89
2019-01-25T05:09:49.727Z,57.22
2019-01-25T05:10:49.715Z,54.96
2019-01-25T05:11:49.715Z,57.04
2019-01-25T05:12:53.122Z,57.17
2019-01-25T05:13:49.684Z,58.94
2019-01-25T05:14:49.708Z,59.12
2019-01-25T05:15:49.690Z,57.90
2019-01-25T05:16:49.689Z,58.94
2019-01-25T05:17:49.651Z,62.07
2019-01-25T05:18:49.642Z,61.76
2019-01-25T05:19:49.622Z,61.21
2019-01-25T05:20:50.869Z,61.52
2019-01-25T05:21:49.600Z,61.21
2019-01-25T05:22:49.571Z,57.35
2019-01-25T05:23:49.576Z,57.35
2019-01-25T05:24:49.558Z,57.59
2019-01-25T05:25:49.582Z,59.78
2019-01-25T05:26:49.541Z,57.07
2019-01-25T05:27:49.519Z,60.51
2019-01-25T05:28:49.508Z,62.39
2019-01-25T05:29:49.504Z,61.35
2019-01-25T05:30:49.488Z,62.49
2019-01-25T05:31:49.507Z,60.17
2019-01-25T05:32:49.482Z,61.32
2019-01-25T05:33:49.458Z,60.69
2019-01-25T05:34:49.451Z,62.15
2019-01-25T05:35:49.447Z,61.73
2019-01-25T05:36:49.462Z,62.05
2019-01-25T05:37:49.433Z,62.43
2019-01-25T05:38:49.413Z,60.56
2019-01-25T05:39:49.391Z,60.04
2019-01-25T05:40:49.379Z,60.25
2019-01-25T05:41:49.399Z,59.10
2019-01-25T05:42:49.367Z,59.20
2019-01-25T05:43:49.356Z,61.40
2019-01-25T05:44:49.361Z,61.60
2019-01-25T05:45:49.340Z,59.52
2019-01-25T05:46:49.340Z,60.66
2019-01-25T05:47:49.349Z,58.79
2019-01-25T05:48:49.310Z,59.93
2019-01-25T05:49:49.298Z,61.29
2019-01-25T05:50:49.286Z,58.06
2019-01-25T05:51:49.294Z,57.64
2019-01-25T05:52:49.255Z,61.50
2019-01-25T05:53:49.243Z,61.81
2019-01-25T05:54:49.241Z,62.54
2019-01-25T05:55:49.266Z,61.81
2019-01-25T05:56:49.256Z,58.68
2019-01-25T05:57:49.205Z,59.96
2019-01-25T05:58:49.194Z,59.75
2019-01-25T05:59:49.178Z,61.97
2019-01-25T06:00:49.175Z,63.09
2019-01-25T06:01:49.181Z,63.20
2019-01-25T06:02:49.147Z,65.80
2019-01-25T06:03:49.224Z,63.51
2019-01-25T06:04:49.135Z,62.98
2019-01-25T06:05:49.114Z,60.77
2019-01-25T06:06:49.298Z,60.87
2019-01-25T06:07:49.156Z,62.23
2019-01-25T06:08:49.128Z,63.68
2019-01-25T06:09:49.085Z,62.85
2019-01-25T06:10:49.110Z,64.73
2019-01-25T06:11:49.069Z,64.11
2019-01-25T06:12:50.385Z,63.79
2019-01-25T06:13:49.138Z,63.89
2019-01-25T06:14:49.053Z,61.99
2019-01-25T06:15:49.075Z,63.55
2019-01-25T06:16:49.011Z,60.56
2019-01-25T06:17:49.002Z,62.33
2019-01-25T06:18:49.011Z,62.85
2019-01-25T06:19:48.984Z,62.33
2019-01-25T06:20:48.958Z,63.65
2019-01-25T06:21:48.956Z,61.16
2019-01-25T06:22:48.946Z,60.77
2019-01-25T06:23:48.961Z,60.04
2019-01-25T06:24:48.919Z,59.62
2019-01-25T06:25:48.995Z,58.92
2019-01-25T06:26:48.902Z,59.02
2019-01-25T06:27:48.895Z,60.17
2019-01-25T06:28:48.919Z,60.20
2019-01-25T06:29:48.915Z,60.53
2019-01-25T06:30:48.950Z,60.02
2019-01-25T06:31:48.892Z,59.59
2019-01-25T06:32:48.840Z,59.28
2019-01-25T06:33:48.822Z,59.81
2019-01-25T06:34:48.835Z,59.08
2019-01-25T06:35:48.891Z,59.10
2019-01-25T06:36:48.804Z,60.67
2019-01-25T06:37:48.801Z,60.25
2019-01-25T06:38:48.816Z,60.67
2019-01-25T06:39:48.796Z,60.04
2019-01-25T06:40:48.760Z,61.30
2019-01-25T06:41:48.833Z,61.92
2019-01-25T06:42:48.780Z,61.92
2019-01-25T06:43:48.719Z,61.01
2019-01-25T06:44:48.712Z,61.01
2019-01-25T06:45:49.914Z,61.32
2019-01-25T06:46:48.685Z,61.43
2019-01-25T06:47:48.705Z,62.26
2019-01-25T06:48:48.677Z,62.79
2019-01-25T06:49:48.661Z,61.95
2019-01-25T06:50:48.683Z,61.98
2019-01-25T06:51:48.636Z,63.23
2019-01-25T06:52:48.661Z,62.60
2019-01-25T06:53:48.641Z,63.02
2019-01-25T06:54:48.619Z,62.29
2019-01-25T06:55:48.597Z,61.25
2019-01-25T06:56:48.580Z,61.11
2019-01-25T06:57:48.595Z,61.04
2019-01-25T06:58:48.653Z,61.56
2019-01-25T06:59:48.555Z,62.19
2019-01-25T07:00:48.546Z,61.43
2019-01-25T07:01:48.550Z,60.91
2019-01-25T07:02:48.529Z,61.11
2019-01-25T07:03:48.532Z,60.70
2019-01-25T07:04:48.493Z,60.91
2019-01-25T07:05:48.512Z,60.80
2019-01-25T07:06:48.480Z,60.17
2019-01-25T07:07:48.509Z,60.49
2019-01-25T07:08:48.498Z,60.07
2019-01-25T07:09:48.463Z,60.25
2019-01-25T07:10:48.462Z,60.70
2019-01-25T07:11:51.796Z,59.73
2019-01-25T07:12:48.443Z,59.63
2019-01-25T07:13:48.450Z,59.31
2019-01-25T07:14:48.438Z,58.27
2019-01-25T07:15:48.430Z,59.21
2019-01-25T07:16:48.367Z,58.50
2019-01-25T07:17:48.370Z,59.03
2019-01-25T07:18:48.349Z,59.21
2019-01-25T07:19:48.343Z,59.13
2019-01-25T07:20:48.358Z,59.63
2019-01-25T07:21:48.322Z,59.03
2019-01-25T07:22:48.329Z,59.10
2019-01-25T07:23:48.301Z,59.03
2019-01-25T07:24:48.287Z,59.00
2019-01-25T07:25:48.319Z,58.48
2019-01-25T07:26:48.271Z,58.89
2019-01-25T07:27:48.271Z,58.69
2019-01-25T07:28:48.304Z,58.89
2019-01-25T07:29:48.251Z,58.79
2019-01-25T07:30:48.336Z,58.37
2019-01-25T07:31:48.215Z,57.85
2019-01-25T07:32:48.211Z,57.85
2019-01-25T07:33:48.257Z,57.95
2019-01-25T07:34:48.188Z,58.14
2019-01-25T07:35:48.202Z,59.00
2019-01-25T07:36:48.210Z,60.43
2019-01-25T07:37:48.341Z,59.08
2019-01-25T07:38:48.224Z,57.93
2019-01-25T07:39:48.145Z,57.82
2019-01-25T07:40:48.279Z,57.51
2019-01-25T07:41:48.112Z,57.62
2019-01-25T07:42:48.144Z,57.30
2019-01-25T07:43:48.094Z,57.09
2019-01-25T07:44:48.109Z,57.72
2019-01-25T07:45:48.082Z,58.24
2019-01-25T07:46:48.081Z,59.91
2019-01-25T07:47:48.072Z,58.66
2019-01-25T07:48:48.065Z,59.18
2019-01-25T07:49:48.022Z,60.22
2019-01-25T07:50:48.024Z,58.76
2019-01-25T07:51:48.021Z,58.11
2019-01-25T07:52:48.006Z,58.03
2019-01-25T07:53:48.331Z,57.72
2019-01-25T07:54:47.973Z,57.51
2019-01-25T07:55:47.989Z,57.30
2019-01-25T07:56:47.993Z,57.72
2019-01-25T07:57:47.949Z,56.78
2019-01-25T07:58:48.028Z,57.62
2019-01-25T07:59:47.955Z,57.20
2019-01-25T08:00:47.904Z,58.03
2019-01-25T08:01:47.945Z,57.82
2019-01-25T08:02:47.968Z,57.93
2019-01-25T08:03:47.916Z,57.40
2019-01-25T08:04:47.881Z,58.34
2019-01-25T08:05:48.071Z,57.62
2019-01-25T08:06:47.879Z,57.82
2019-01-25T08:07:47.868Z,57.82
2019-01-25T08:08:47.848Z,57.93
2019-01-25T08:09:47.832Z,58.01
2019-01-25T08:10:47.816Z,57.93
2019-01-25T08:11:47.816Z,57.90
2019-01-25T08:12:47.894Z,58.01
2019-01-25T08:13:47.802Z,58.11
2019-01-25T08:14:47.756Z,57.17
2019-01-25T08:15:47.821Z,56.34
2019-01-25T08:16:47.761Z,55.29
2019-01-25T08:17:47.753Z,56.34
2019-01-25T08:18:47.730Z,58.01
2019-01-25T08:19:47.726Z,56.78
2019-01-25T08:20:47.720Z,56.44
2019-01-25T08:21:47.685Z,57.28
2019-01-25T08:22:47.709Z,56.96
2019-01-25T08:23:47.713Z,56.34
2019-01-25T08:24:47.693Z,55.40
2019-01-25T08:25:47.648Z,55.40
2019-01-25T08:26:47.708Z,55.29
2019-01-25T08:27:47.851Z,55.71
2019-01-25T08:28:47.621Z,55.71
2019-01-25T08:29:47.669Z,56.76
2019-01-25T08:30:47.633Z,57.28
2019-01-25T08:31:47.979Z,57.17
2019-01-25T08:32:47.697Z,56.46
2019-01-25T08:33:47.568Z,55.42
2019-01-25T08:34:47.608Z,55.53
2019-01-25T08:35:47.638Z,55.53
2019-01-25T08:36:47.530Z,55.32
2019-01-25T08:37:47.533Z,56.26
2019-01-25T08:38:47.523Z,56.99
2019-01-25T08:39:47.540Z,57.51
2019-01-25T08:40:47.545Z,57.40
2019-01-25T08:41:47.497Z,58.87
2019-01-25T08:42:47.538Z,57.93
2019-01-25T08:43:47.450Z,58.03
2019-01-25T08:44:47.474Z,59.18
2019-01-25T08:45:49.293Z,58.76
2019-01-25T08:46:47.457Z,58.03
2019-01-25T08:47:47.418Z,57.62
2019-01-25T08:48:47.464Z,57.20
2019-01-25T08:49:47.400Z,57.30
2019-01-25T08:50:47.413Z,57.20
2019-01-25T08:51:47.394Z,57.22
2019-01-25T08:52:47.424Z,58.69
2019-01-25T08:53:47.331Z,58.27
2019-01-25T08:54:47.410Z,57.33
2019-01-25T08:55:47.323Z,57.98
2019-01-25T08:56:47.372Z,59.16
2019-01-25T08:57:47.328Z,59.37
2019-01-25T08:58:47.309Z,59.37
2019-01-25T08:59:47.320Z,58.53
2019-01-25T09:00:47.262Z,59.37
2019-01-25T09:01:47.268Z,59.99
2019-01-25T09:02:47.249Z,59.89
2019-01-25T09:03:47.255Z,58.74
2019-01-25T09:04:47.227Z,59.58
2019-01-25T09:05:47.205Z,58.74
2019-01-25T09:06:47.206Z,58.92
2019-01-25T09:07:47.197Z,58.40
2019-01-25T09:08:47.235Z,58.09
2019-01-25T09:09:47.225Z,57.72
2019-01-25T09:10:47.166Z,56.18
2019-01-25T09:11:47.148Z,54.25
2019-01-25T09:12:47.153Z,49.77
2019-01-25T09:13:47.160Z,47.11
2019-01-25T09:14:47.122Z,44.74
2019-01-25T09:15:47.133Z,42.59
2019-01-25T09:16:47.122Z,41.52
2019-01-25T09:17:47.093Z,40.03
2019-01-25T09:18:47.107Z,39.91
2019-01-25T09:19:47.072Z,38.67
2019-01-25T09:20:47.072Z,38.92
2019-01-25T09:21:47.085Z,39.00
2019-01-25T09:22:47.044Z,39.12
2019-01-25T09:23:47.043Z,39.95
2019-01-25T09:24:47.011Z,40.83
2019-01-25T09:25:47.000Z,42.00
2019-01-25T09:26:47.007Z,42.98
2019-01-25T09:27:47.017Z,44.16
2019-01-25T09:28:46.993Z,44.90
2019-01-25T09:29:46.964Z,45.34
2019-01-25T09:30:46.988Z,44.53
2019-01-25T09:31:46.941Z,45.17
2019-01-25T09:32:46.925Z,45.48
2019-01-25T09:33:46.917Z,46.21
2019-01-25T09:34:46.914Z,47.05
2019-01-25T09:35:46.901Z,47.13
2019-01-25T09:36:46.897Z,47.00
2019-01-25T09:37:46.992Z,44.96
2019-01-25T09:38:46.914Z,44.72
2019-01-25T09:39:46.858Z,43.44
2019-01-25T09:40:46.844Z,43.56
2019-01-25T09:41:46.854Z,43.70
2019-01-25T09:42:46.891Z,44.43
2019-01-25T09:43:46.880Z,44.31
2019-01-25T09:44:46.800Z,43.87
2019-01-25T09:45:46.780Z,42.09
2019-01-25T09:46:47.081Z,41.45
2019-01-25T09:47:46.766Z,41.66
2019-01-25T09:48:46.787Z,40.61
2019-01-25T09:49:46.745Z,40.78
2019-01-25T09:50:52.678Z,39.91
2019-01-25T09:51:47.745Z,39.59
2019-01-25T09:52:46.706Z,37.45
2019-01-25T09:53:46.695Z,35.53
2019-01-25T09:54:46.721Z,34.97
2019-01-25T09:55:46.678Z,33.51
2019-01-25T09:56:46.771Z,33.47
2019-01-25T09:57:46.647Z,33.46
2019-01-25T09:58:46.729Z,32.84
2019-01-25T09:59:46.742Z,32.23
2019-01-25T10:00:46.643Z,33.52
2019-01-25T10:01:46.631Z,33.86
2019-01-25T10:02:46.671Z,33.54
2019-01-25T10:03:46.589Z,33.42
2019-01-25T10:04:46.575Z,33.33
2019-01-25T10:05:46.564Z,34.38
2019-01-25T10:06:46.560Z,33.35
2019-01-25T10:07:46.569Z,33.87
2019-01-25T10:08:46.639Z,34.56
2019-01-25T10:09:46.518Z,35.87
2019-01-25T10:10:46.503Z,37.82
2019-01-25T10:11:46.501Z,40.80
2019-01-25T10:12:46.503Z,41.67
2019-01-25T10:13:46.514Z,43.14
2019-01-25T10:14:46.474Z,43.27
2019-01-25T10:15:46.457Z,43.99
2019-01-25T10:16:46.442Z,43.70
2019-01-25T10:17:46.435Z,44.76
2019-01-25T10:18:46.436Z,44.76
2019-01-25T10:19:46.440Z,44.86
2019-01-25T10:20:46.476Z,45.17
2019-01-25T10:21:46.387Z,44.86
2019-01-25T10:22:46.377Z,44.43
2019-01-25T10:23:46.376Z,43.80
2019-01-25T10:24:46.402Z,44.31
2019-01-25T10:25:46.349Z,43.45
2019-01-25T10:26:46.340Z,42.62
2019-01-25T10:27:47.202Z,41.98
2019-01-25T10:28:46.316Z,41.58
2019-01-25T10:29:46.339Z,41.98
2019-01-25T10:30:46.331Z,41.27
2019-01-25T10:31:46.294Z,42.46
2019-01-25T10:32:46.293Z,42.68
2019-01-25T10:33:46.283Z,42.51
2019-01-25T10:34:46.292Z,43.03
2019-01-25T10:35:46.254Z,43.07
2019-01-25T10:36:46.231Z,44.45
2019-01-25T10:37:46.221Z,45.17
2019-01-25T10:38:46.207Z,45.70
2019-01-25T10:39:46.251Z,45.59
2019-01-25T10:40:47.040Z,45.07
2019-01-25T10:41:46.171Z,45.28
2019-01-25T10:42:53.052Z,45.09
2019-01-25T10:43:47.156Z,45.30
2019-01-25T10:44:46.166Z,45.73
2019-01-25T10:45:46.138Z,46.36
2019-01-25T10:46:46.124Z,47.40
2019-01-25T10:47:46.140Z,46.88
2019-01-25T10:48:46.098Z,47.01
2019-01-25T10:49:46.087Z,47.42
2019-01-25T10:50:46.072Z,47.42
2019-01-25T10:51:46.074Z,47.32
2019-01-25T10:52:46.187Z,47.72
2019-01-25T10:53:46.048Z,47.94
2019-01-25T10:54:46.059Z,46.91
2019-01-25T10:55:46.031Z,46.80
2019-01-25T10:56:46.049Z,47.22
2019-01-25T10:57:46.008Z,46.84
2019-01-25T10:58:46.003Z,47.05
2019-01-25T10:59:45.996Z,48.30
2019-01-25T11:00:45.980Z,48.41
2019-01-25T11:01:45.967Z,48.72
2019-01-25T11:02:45.972Z,48.38
2019-01-25T11:03:46.715Z,48.18
2019-01-25T11:04:45.934Z,48.26
2019-01-25T11:05:45.922Z,47.42
2019-01-25T11:06:45.914Z,47.63
2019-01-25T11:07:45.916Z,48.78
2019-01-25T11:08:45.885Z,47.82
2019-01-25T11:09:45.911Z,47.53
2019-01-25T11:10:45.877Z,48.47
2019-01-25T11:11:45.852Z,48.57
2019-01-25T11:12:45.868Z,48.78
2019-01-25T11:13:45.835Z,49.30
2019-01-25T11:14:45.825Z,49.49
2019-01-25T11:15:45.851Z,46.98
2019-01-25T11:16:45.809Z,47.30
2019-01-25T11:17:45.795Z,47.32
2019-01-25T11:18:45.783Z,47.63
2019-01-25T11:19:45.766Z,48.88
2019-01-25T11:20:45.799Z,47.01
2019-01-25T11:21:45.790Z,48.26
2019-01-25T11:22:45.741Z,47.84
2019-01-25T11:23:45.734Z,47.42
2019-01-25T11:24:45.727Z,48.47
2019-01-25T11:25:45.707Z,48.26
2019-01-25T11:26:45.696Z,48.24
2019-01-25T11:27:45.719Z,48.65
2019-01-25T11:28:45.723Z,47.74
2019-01-25T11:29:45.677Z,48.24
2019-01-25T11:30:45.694Z,48.24
2019-01-25T11:31:45.654Z,47.61
2019-01-25T11:32:45.683Z,47.84
2019-01-25T11:33:45.642Z,48.36
2019-01-25T11:34:45.612Z,47.92
2019-01-25T11:35:45.612Z,47.30
2019-01-25T11:36:45.638Z,47.40
2019-01-25T11:37:45.594Z,47.59
2019-01-25T11:38:45.594Z,47.67
2019-01-25T11:39:49.204Z,47.49
2019-01-25T11:40:45.551Z,47.25
2019-01-25T11:41:45.584Z,47.25
2019-01-25T11:42:45.579Z,46.32
2019-01-25T11:43:45.519Z,46.73
2019-01-25T11:44:45.500Z,46.61
2019-01-25T11:45:45.496Z,45.57
2019-01-25T11:46:45.486Z,45.88
2019-01-25T11:47:45.510Z,45.88
2019-01-25T11:48:45.472Z,45.47
2019-01-25T11:49:45.457Z,45.36
2019-01-25T11:50:45.453Z,46.30
2019-01-25T11:51:45.442Z,45.78
2019-01-25T11:52:45.478Z,45.05
2019-01-25T11:53:45.435Z,44.84
2019-01-25T11:54:45.407Z,45.15
2019-01-25T11:55:45.407Z,44.84
2019-01-25T11:56:45.378Z,44.84
2019-01-25T11:57:45.383Z,44.74
2019-01-25T11:58:45.376Z,45.36
2019-01-25T11:59:45.371Z,44.43
2019-01-25T12:00:45.333Z,44.43
2019-01-25T12:01:45.334Z,44.53
2019-01-25T12:02:45.319Z,44.64
2019-01-25T12:03:45.324Z,45.17
2019-01-25T12:04:45.299Z,44.86
2019-01-25T12:05:45.278Z,44.86
2019-01-25T12:06:45.266Z,44.96
2019-01-25T12:07:45.262Z,45.07
2019-01-25T12:08:45.281Z,45.07
2019-01-25T12:09:45.239Z,45.48
2019-01-25T12:10:45.230Z,45.17
2019-01-25T12:11:45.214Z,45.07
2019-01-25T12:12:45.194Z,45.26
2019-01-25T12:13:45.212Z,45.26
2019-01-25T12:14:45.186Z,44.95
2019-01-25T12:15:45.171Z,44.95
2019-01-25T12:16:45.160Z,45.97
2019-01-25T12:17:45.149Z,44.92
2019-01-25T12:18:45.165Z,45.03
2019-01-25T12:19:45.129Z,44.95
2019-01-25T12:20:45.117Z,45.78
2019-01-25T12:21:45.106Z,45.47
2019-01-25T12:22:45.107Z,47.15
2019-01-25T12:23:45.090Z,47.13
2019-01-25T12:24:45.110Z,47.25
2019-01-25T12:25:45.088Z,48.30
2019-01-25T12:26:45.136Z,49.05
2019-01-25T12:27:45.055Z,49.28
2019-01-25T12:28:45.038Z,49.28
2019-01-25T12:29:45.103Z,48.34
2019-01-25T12:30:45.039Z,48.44
2019-01-25T12:31:45.025Z,48.03
2019-01-25T12:32:44.996Z,49.28
2019-01-25T12:33:44.990Z,48.86
2019-01-25T12:34:45.024Z,48.55
2019-01-25T12:35:45.043Z,48.97
2019-01-25T12:36:44.953Z,48.11
2019-01-25T12:37:44.932Z,48.11
2019-01-25T12:38:44.924Z,48.34
2019-01-25T12:39:44.913Z,48.63
2019-01-25T12:40:44.935Z,47.80
2019-01-25T12:41:44.921Z,47.40
2019-01-25T12:42:44.904Z,47.92
2019-01-25T12:43:44.920Z,48.05
2019-01-25T12:44:44.881Z,48.99
2019-01-25T12:45:44.923Z,48.47
2019-01-25T12:46:44.892Z,48.38
2019-01-25T12:47:44.853Z,48.41
2019-01-25T12:48:44.825Z,48.51
2019-01-25T12:49:44.839Z,48.82
2019-01-25T12:50:48.989Z,49.35
2019-01-25T12:51:44.834Z,48.82
2019-01-25T12:52:44.814Z,48.72